Time;durP1;ratioP1;P1;durP2;ratioP2;P2;SDS_P1;SDS_P2;PMS_P1;PMS_P2;Temp;Humidity;BMP_temperature;BMP_pressure;BME280_temperature;BME280_humidity;BME280_pressure;Samples;Min_cycle;Max_cycle;Signal;HPM_P1;HPM_P2
2021/03/09 00:00:12;;;;;;;13.35;8.000001;;;;;;;-2.08;51.29297;95261.83;;;;
2021/03/09 00:01:13;;;;;;;13.35;8.000001;;;;;;;-2.08;51.29297;95261.83;;;;
2021/03/09 00:02:14;;;;;;;13.35;8.000001;;;;;;;-2.08;51.29297;95261.83;;;;
2021/03/09 00:03:14;;;;;;;13.35;8.000001;;;;;;;-2.08;51.29297;95261.83;;;;
2021/03/09 00:04:15;;;;;;;13.35;8.000001;;;;;;;-2.08;51.29297;95261.83;;;;
2021/03/09 00:05:15;;;;;;;13.35;8.000001;;;;;;;-2.08;51.29297;95261.83;;;;
2021/03/09 00:06:16;;;;;;;13.35;8.000001;;;;;;;-2.08;51.29297;95261.83;;;;
2021/03/09 00:07:16;;;;;;;12.7;7.65;;;;;;;-2.12;51.49805;95247.3;;;;
2021/03/09 00:08:17;;;;;;;12.7;7.65;;;;;;;-2.12;51.49805;95247.3;;;;
2021/03/09 00:09:17;;;;;;;12.7;7.65;;;;;;;-2.12;51.49805;95247.3;;;;
2021/03/09 00:10:18;;;;;;;12.7;7.65;;;;;;;-2.12;51.49805;95247.3;;;;
2021/03/09 00:11:19;;;;;;;12.7;7.65;;;;;;;-2.12;51.49805;95247.3;;;;
2021/03/09 00:12:19;;;;;;;12.7;7.65;;;;;;;-2.12;51.49805;95247.3;;;;
2021/03/09 00:13:20;;;;;;;12.7;7.65;;;;;;;-2.12;51.49805;95247.3;;;;
2021/03/09 00:14:21;;;;;;;12.7;7.65;;;;;;;-2.12;51.49805;95247.3;;;;
2021/03/09 00:15:21;;;;;;;12.7;7.65;;;;;;;-2.12;51.49805;95247.3;;;;
2021/03/09 00:16:22;;;;;;;12.7;7.65;;;;;;;-2.12;51.49805;95247.3;;;;
2021/03/09 00:17:22;;;;;;;12.95;7.6;;;;;;;-2.19;51.48926;95247.57;;;;
2021/03/09 00:18:23;;;;;;;12.95;7.6;;;;;;;-2.19;51.48926;95247.57;;;;
2021/03/09 00:19:23;;;;;;;12.95;7.6;;;;;;;-2.19;51.48926;95247.57;;;;
2021/03/09 00:20:24;;;;;;;12.95;7.6;;;;;;;-2.19;51.48926;95247.57;;;;
2021/03/09 00:21:25;;;;;;;12.95;7.6;;;;;;;-2.19;51.48926;95247.57;;;;
2021/03/09 00:22:25;;;;;;;12.95;7.6;;;;;;;-2.19;51.48926;95247.57;;;;
2021/03/09 00:23:26;;;;;;;12.95;7.6;;;;;;;-2.19;51.48926;95247.57;;;;
2021/03/09 00:24:26;;;;;;;12.95;7.6;;;;;;;-2.19;51.48926;95247.57;;;;
2021/03/09 00:25:27;;;;;;;12.95;7.6;;;;;;;-2.19;51.48926;95247.57;;;;
2021/03/09 00:26:27;;;;;;;12.95;7.6;;;;;;;-2.19;51.48926;95247.57;;;;
2021/03/09 00:27:28;;;;;;;12.95;7.6;;;;;;;-2.19;51.48926;95247.57;;;;
2021/03/09 00:28:28;;;;;;;13.5;7.949999;;;;;;;-2.27;51.5625;95239.14;;;;
2021/03/09 00:29:29;;;;;;;13.5;7.949999;;;;;;;-2.27;51.5625;95239.14;;;;
2021/03/09 00:30:30;;;;;;;13.5;7.949999;;;;;;;-2.27;51.5625;95239.14;;;;
2021/03/09 00:31:31;;;;;;;13.5;7.949999;;;;;;;-2.27;51.5625;95239.14;;;;
2021/03/09 00:32:31;;;;;;;13.5;7.949999;;;;;;;-2.27;51.5625;95239.14;;;;
2021/03/09 00:33:32;;;;;;;13.5;7.949999;;;;;;;-2.27;51.5625;95239.14;;;;
2021/03/09 00:34:33;;;;;;;13.5;7.949999;;;;;;;-2.27;51.5625;95239.14;;;;
2021/03/09 00:35:33;;;;;;;13.5;7.949999;;;;;;;-2.27;51.5625;95239.14;;;;
2021/03/09 00:36:34;;;;;;;13.5;7.949999;;;;;;;-2.27;51.5625;95239.14;;;;
2021/03/09 00:37:34;;;;;;;13.5;7.949999;;;;;;;-2.27;51.5625;95239.14;;;;
2021/03/09 00:38:35;;;;;;;13.95;8.050001;;;;;;;-2.44;51.77246;95227.25;;;;
2021/03/09 00:39:35;;;;;;;13.95;8.050001;;;;;;;-2.44;51.77246;95227.25;;;;
2021/03/09 00:40:36;;;;;;;13.95;8.050001;;;;;;;-2.44;51.77246;95227.25;;;;
2021/03/09 00:41:36;;;;;;;13.95;8.050001;;;;;;;-2.44;51.77246;95227.25;;;;
2021/03/09 00:42:37;;;;;;;13.95;8.050001;;;;;;;-2.44;51.77246;95227.25;;;;
2021/03/09 00:43:38;;;;;;;13.95;8.050001;;;;;;;-2.44;51.77246;95227.25;;;;
2021/03/09 00:44:38;;;;;;;13.95;8.050001;;;;;;;-2.44;51.77246;95227.25;;;;
2021/03/09 00:45:39;;;;;;;13.95;8.050001;;;;;;;-2.44;51.77246;95227.25;;;;
2021/03/09 00:46:39;;;;;;;13.95;8.050001;;;;;;;-2.44;51.77246;95227.25;;;;
2021/03/09 00:47:40;;;;;;;13.95;8.050001;;;;;;;-2.44;51.77246;95227.25;;;;
2021/03/09 00:48:40;;;;;;;13.95;8.050001;;;;;;;-2.44;51.77246;95227.25;;;;
2021/03/09 00:49:41;;;;;;;14.9;7.75;;;;;;;-2.59;52.01465;95228.81;;;;
2021/03/09 00:50:42;;;;;;;14.9;7.75;;;;;;;-2.59;52.01465;95228.81;;;;
2021/03/09 00:51:42;;;;;;;14.9;7.75;;;;;;;-2.59;52.01465;95228.81;;;;
2021/03/09 00:52:43;;;;;;;14.9;7.75;;;;;;;-2.59;52.01465;95228.81;;;;
2021/03/09 00:53:43;;;;;;;14.9;7.75;;;;;;;-2.59;52.01465;95228.81;;;;
2021/03/09 00:54:44;;;;;;;14.9;7.75;;;;;;;-2.59;52.01465;95228.81;;;;
2021/03/09 00:55:44;;;;;;;14.9;7.75;;;;;;;-2.59;52.01465;95228.81;;;;
2021/03/09 00:56:45;;;;;;;14.9;7.75;;;;;;;-2.59;52.01465;95228.81;;;;
2021/03/09 00:57:45;;;;;;;14.9;7.75;;;;;;;-2.59;52.01465;95228.81;;;;
2021/03/09 00:58:54;;;;;;;14.9;7.75;;;;;;;-2.59;52.01465;95228.81;;;;
2021/03/09 00:59:54;;;;;;;14.85;7.65;;;;;;;-2.72;52.3125;95216.94;;;;
2021/03/09 01:00:55;;;;;;;14.85;7.65;;;;;;;-2.72;52.3125;95216.94;;;;
2021/03/09 01:01:56;;;;;;;14.85;7.65;;;;;;;-2.72;52.3125;95216.94;;;;
2021/03/09 01:02:56;;;;;;;14.85;7.65;;;;;;;-2.72;52.3125;95216.94;;;;
2021/03/09 01:03:57;;;;;;;14.85;7.65;;;;;;;-2.72;52.3125;95216.94;;;;
2021/03/09 01:04:57;;;;;;;14.85;7.65;;;;;;;-2.72;52.3125;95216.94;;;;
2021/03/09 01:05:58;;;;;;;14.85;7.65;;;;;;;-2.72;52.3125;95216.94;;;;
2021/03/09 01:06:58;;;;;;;14.85;7.65;;;;;;;-2.72;52.3125;95216.94;;;;
2021/03/09 01:07:59;;;;;;;14.85;7.65;;;;;;;-2.72;52.3125;95216.94;;;;
2021/03/09 01:09:00;;;;;;;14.85;7.65;;;;;;;-2.72;52.3125;95216.94;;;;
2021/03/09 01:10:00;;;;;;;14.85;7.65;;;;;;;-2.72;52.3125;95216.94;;;;
2021/03/09 01:11:01;;;;;;;12.6;7.449999;;;;;;;-2.83;52.46484;95205.41;;;;
2021/03/09 01:12:01;;;;;;;12.6;7.449999;;;;;;;-2.83;52.46484;95205.41;;;;
2021/03/09 01:13:03;;;;;;;12.6;7.449999;;;;;;;-2.83;52.46484;95205.41;;;;
2021/03/09 01:14:04;;;;;;;12.6;7.449999;;;;;;;-2.83;52.46484;95205.41;;;;
2021/03/09 01:15:04;;;;;;;12.6;7.449999;;;;;;;-2.83;52.46484;95205.41;;;;
2021/03/09 01:16:07;;;;;;;12.6;7.449999;;;;;;;-2.83;52.46484;95205.41;;;;
2021/03/09 01:17:07;;;;;;;12.6;7.449999;;;;;;;-2.83;52.46484;95205.41;;;;
2021/03/09 01:18:08;;;;;;;12.6;7.449999;;;;;;;-2.83;52.46484;95205.41;;;;
2021/03/09 01:19:09;;;;;;;12.6;7.449999;;;;;;;-2.83;52.46484;95205.41;;;;
2021/03/09 01:20:09;;;;;;;12.6;7.449999;;;;;;;-2.83;52.46484;95205.41;;;;
2021/03/09 01:21:10;;;;;;;14.6;7.400001;;;;;;;-2.93;52.78711;95198.49;;;;
2021/03/09 01:22:11;;;;;;;14.6;7.400001;;;;;;;-2.93;52.78711;95198.49;;;;
2021/03/09 01:23:11;;;;;;;14.6;7.400001;;;;;;;-2.93;52.78711;95198.49;;;;
2021/03/09 01:24:12;;;;;;;14.6;7.400001;;;;;;;-2.93;52.78711;95198.49;;;;
2021/03/09 01:25:13;;;;;;;14.6;7.400001;;;;;;;-2.93;52.78711;95198.49;;;;
2021/03/09 01:26:14;;;;;;;14.6;7.400001;;;;;;;-2.93;52.78711;95198.49;;;;
2021/03/09 01:27:14;;;;;;;14.6;7.400001;;;;;;;-2.93;52.78711;95198.49;;;;
2021/03/09 01:28:15;;;;;;;14.6;7.400001;;;;;;;-2.93;52.78711;95198.49;;;;
2021/03/09 01:29:15;;;;;;;14.6;7.400001;;;;;;;-2.93;52.78711;95198.49;;;;
2021/03/09 01:30:16;;;;;;;14.6;7.400001;;;;;;;-2.93;52.78711;95198.49;;;;
2021/03/09 01:31:19;;;;;;;14.6;7.400001;;;;;;;-2.93;52.78711;95198.49;;;;
2021/03/09 01:32:19;;;;;;;13.65;7.500001;;;;;;;-2.95;52.94043;95190.31;;;;
2021/03/09 01:33:21;;;;;;;13.65;7.500001;;;;;;;-2.95;52.94043;95190.31;;;;
2021/03/09 01:34:22;;;;;;;13.65;7.500001;;;;;;;-2.95;52.94043;95190.31;;;;
2021/03/09 01:35:22;;;;;;;13.65;7.500001;;;;;;;-2.95;52.94043;95190.31;;;;
2021/03/09 01:36:23;;;;;;;13.65;7.500001;;;;;;;-2.95;52.94043;95190.31;;;;
2021/03/09 01:37:23;;;;;;;13.65;7.500001;;;;;;;-2.95;52.94043;95190.31;;;;
2021/03/09 01:38:24;;;;;;;13.65;7.500001;;;;;;;-2.95;52.94043;95190.31;;;;
2021/03/09 01:39:25;;;;;;;13.65;7.500001;;;;;;;-2.95;52.94043;95190.31;;;;
2021/03/09 01:40:25;;;;;;;13.65;7.500001;;;;;;;-2.95;52.94043;95190.31;;;;
2021/03/09 01:41:26;;;;;;;13.65;7.500001;;;;;;;-2.95;52.94043;95190.31;;;;
2021/03/09 01:42:27;;;;;;;12.65;7.15;;;;;;;-2.98;53.04004;95176.59;;;;
2021/03/09 01:43:28;;;;;;;12.65;7.15;;;;;;;-2.98;53.04004;95176.59;;;;
2021/03/09 01:44:28;;;;;;;12.65;7.15;;;;;;;-2.98;53.04004;95176.59;;;;
2021/03/09 01:45:29;;;;;;;12.65;7.15;;;;;;;-2.98;53.04004;95176.59;;;;
2021/03/09 01:46:30;;;;;;;12.65;7.15;;;;;;;-2.98;53.04004;95176.59;;;;
2021/03/09 01:47:31;;;;;;;12.65;7.15;;;;;;;-2.98;53.04004;95176.59;;;;
2021/03/09 01:48:32;;;;;;;12.65;7.15;;;;;;;-2.98;53.04004;95176.59;;;;
2021/03/09 01:49:36;;;;;;;12.65;7.15;;;;;;;-2.98;53.04004;95176.59;;;;
2021/03/09 01:50:39;;;;;;;12.65;7.15;;;;;;;-2.98;53.04004;95176.59;;;;
2021/03/09 01:51:42;;;;;;;12.65;7.15;;;;;;;-2.98;53.04004;95176.59;;;;
2021/03/09 01:52:44;;;;;;;12.65;7.15;;;;;;;-2.98;53.04004;95176.59;;;;
2021/03/09 01:53:48;;;;;;;11.9;7.000001;;;;;;;-3.1;53.01563;95156.25;;;;
2021/03/09 01:54:49;;;;;;;11.9;7.000001;;;;;;;-3.1;53.01563;95156.25;;;;
2021/03/09 01:55:50;;;;;;;11.9;7.000001;;;;;;;-3.1;53.01563;95156.25;;;;
2021/03/09 01:56:50;;;;;;;11.9;7.000001;;;;;;;-3.1;53.01563;95156.25;;;;
2021/03/09 01:57:52;;;;;;;11.9;7.000001;;;;;;;-3.1;53.01563;95156.25;;;;
2021/03/09 01:58:53;;;;;;;11.9;7.000001;;;;;;;-3.1;53.01563;95156.25;;;;
2021/03/09 01:59:54;;;;;;;11.9;7.000001;;;;;;;-3.1;53.01563;95156.25;;;;
2021/03/09 02:00:55;;;;;;;11.9;7.000001;;;;;;;-3.1;53.01563;95156.25;;;;
2021/03/09 02:01:56;;;;;;;11.9;7.000001;;;;;;;-3.1;53.01563;95156.25;;;;
2021/03/09 02:02:57;;;;;;;11.9;7.000001;;;;;;;-3.1;53.01563;95156.25;;;;
2021/03/09 02:03:58;;;;;;;11.4;6.349999;;;;;;;-3.14;53.15625;95152.74;;;;
2021/03/09 02:04:59;;;;;;;11.4;6.349999;;;;;;;-3.14;53.15625;95152.74;;;;
2021/03/09 02:05:59;;;;;;;11.4;6.349999;;;;;;;-3.14;53.15625;95152.74;;;;
2021/03/09 02:07:00;;;;;;;11.4;6.349999;;;;;;;-3.14;53.15625;95152.74;;;;
2021/03/09 02:08:01;;;;;;;11.4;6.349999;;;;;;;-3.14;53.15625;95152.74;;;;
2021/03/09 02:09:02;;;;;;;11.4;6.349999;;;;;;;-3.14;53.15625;95152.74;;;;
2021/03/09 02:10:04;;;;;;;11.4;6.349999;;;;;;;-3.14;53.15625;95152.74;;;;
2021/03/09 02:11:09;;;;;;;11.4;6.349999;;;;;;;-3.14;53.15625;95152.74;;;;
2021/03/09 02:12:19;;;;;;;11.4;6.349999;;;;;;;-3.14;53.15625;95152.74;;;;
2021/03/09 02:13:23;;;;;;;11.4;6.349999;;;;;;;-3.14;53.15625;95152.74;;;;
2021/03/09 02:14:39;;;;;;;11.9;7.049999;;;;;;;-3.21;53.18945;95138.94;;;;
2021/03/09 02:15:47;;;;;;;11.9;7.049999;;;;;;;-3.21;53.18945;95138.94;;;;
2021/03/09 02:16:55;;;;;;;11.9;7.049999;;;;;;;-3.21;53.18945;95138.94;;;;
2021/03/09 02:18:03;;;;;;;11.9;7.049999;;;;;;;-3.21;53.18945;95138.94;;;;
2021/03/09 02:19:13;;;;;;;11.9;7.049999;;;;;;;-3.21;53.18945;95138.94;;;;
2021/03/09 02:21:29;;;;;;;11.9;7.049999;;;;;;;-3.21;53.18945;95138.94;;;;
2021/03/09 02:22:44;;;;;;;11.9;7.049999;;;;;;;-3.21;53.18945;95138.94;;;;
2021/03/09 02:24:22;;;;;;;11.9;7.049999;;;;;;;-3.21;53.18945;95138.94;;;;
2021/03/09 02:29:36;;;;;;;14.05;7.150001;;;;;;;-3.28;53.46191;95127.76;;;;
2021/03/09 02:31:02;;;;;;;14.05;7.150001;;;;;;;-3.28;53.46191;95127.76;;;;
2021/03/09 02:32:03;;;;;;;14.05;7.150001;;;;;;;-3.28;53.46191;95127.76;;;;
2021/03/09 02:33:06;;;;;;;14.05;7.150001;;;;;;;-3.28;53.46191;95127.76;;;;
2021/03/09 02:34:13;;;;;;;14.05;7.150001;;;;;;;-3.28;53.46191;95127.76;;;;
2021/03/09 02:35:21;;;;;;;14.05;7.150001;;;;;;;-3.28;53.46191;95127.76;;;;
2021/03/09 02:36:24;;;;;;;11.15;6.899999;;;;;;;-3.35;53.47461;95122.77;;;;
2021/03/09 02:37:27;;;;;;;11.15;6.899999;;;;;;;-3.35;53.47461;95122.77;;;;
2021/03/09 02:38:33;;;;;;;11.15;6.899999;;;;;;;-3.35;53.47461;95122.77;;;;
2021/03/09 02:39:37;;;;;;;11.15;6.899999;;;;;;;-3.35;53.47461;95122.77;;;;
2021/03/09 02:40:42;;;;;;;11.15;6.899999;;;;;;;-3.35;53.47461;95122.77;;;;
2021/03/09 02:41:45;;;;;;;11.15;6.899999;;;;;;;-3.35;53.47461;95122.77;;;;
2021/03/09 02:42:47;;;;;;;11.15;6.899999;;;;;;;-3.35;53.47461;95122.77;;;;
2021/03/09 02:43:51;;;;;;;11.15;6.899999;;;;;;;-3.35;53.47461;95122.77;;;;
2021/03/09 02:44:54;;;;;;;11.15;6.899999;;;;;;;-3.35;53.47461;95122.77;;;;
2021/03/09 02:45:59;;;;;;;11.15;6.899999;;;;;;;-3.35;53.47461;95122.77;;;;
2021/03/09 02:47:02;;;;;;;10.9;7.049999;;;;;;;-3.44;53.6084;95119.26;;;;
2021/03/09 02:48:04;;;;;;;10.9;7.049999;;;;;;;-3.44;53.6084;95119.26;;;;
2021/03/09 02:49:07;;;;;;;10.9;7.049999;;;;;;;-3.44;53.6084;95119.26;;;;
2021/03/09 02:50:11;;;;;;;10.9;7.049999;;;;;;;-3.44;53.6084;95119.26;;;;
2021/03/09 02:51:14;;;;;;;10.9;7.049999;;;;;;;-3.44;53.6084;95119.26;;;;
2021/03/09 02:52:15;;;;;;;10.9;7.049999;;;;;;;-3.44;53.6084;95119.26;;;;
2021/03/09 02:53:19;;;;;;;10.9;7.049999;;;;;;;-3.44;53.6084;95119.26;;;;
2021/03/09 02:54:22;;;;;;;10.9;7.049999;;;;;;;-3.44;53.6084;95119.26;;;;
2021/03/09 02:55:24;;;;;;;10.9;7.049999;;;;;;;-3.44;53.6084;95119.26;;;;
2021/03/09 02:56:28;;;;;;;10.9;7.049999;;;;;;;-3.44;53.6084;95119.26;;;;
2021/03/09 02:57:29;;;;;;;11;6.65;;;;;;;-3.6;53.98438;95113.95;;;;
2021/03/09 02:58:32;;;;;;;11;6.65;;;;;;;-3.6;53.98438;95113.95;;;;
2021/03/09 02:59:34;;;;;;;11;6.65;;;;;;;-3.6;53.98438;95113.95;;;;
2021/03/09 03:00:36;;;;;;;11;6.65;;;;;;;-3.6;53.98438;95113.95;;;;
2021/03/09 03:01:37;;;;;;;11;6.65;;;;;;;-3.6;53.98438;95113.95;;;;
2021/03/09 03:02:40;;;;;;;11;6.65;;;;;;;-3.6;53.98438;95113.95;;;;
2021/03/09 03:03:42;;;;;;;11;6.65;;;;;;;-3.6;53.98438;95113.95;;;;
2021/03/09 03:04:44;;;;;;;11;6.65;;;;;;;-3.6;53.98438;95113.95;;;;
2021/03/09 03:05:49;;;;;;;11;6.65;;;;;;;-3.6;53.98438;95113.95;;;;
2021/03/09 03:06:50;;;;;;;11;6.65;;;;;;;-3.6;53.98438;95113.95;;;;
2021/03/09 03:07:52;;;;;;;12.75;7.05;;;;;;;-3.74;54.31055;95117.05;;;;
2021/03/09 03:08:53;;;;;;;12.75;7.05;;;;;;;-3.74;54.31055;95117.05;;;;
2021/03/09 03:09:55;;;;;;;12.75;7.05;;;;;;;-3.74;54.31055;95117.05;;;;
2021/03/09 03:10:56;;;;;;;12.75;7.05;;;;;;;-3.74;54.31055;95117.05;;;;
2021/03/09 03:11:58;;;;;;;12.75;7.05;;;;;;;-3.74;54.31055;95117.05;;;;
2021/03/09 03:12:59;;;;;;;12.75;7.05;;;;;;;-3.74;54.31055;95117.05;;;;
2021/03/09 03:14:01;;;;;;;12.75;7.05;;;;;;;-3.74;54.31055;95117.05;;;;
2021/03/09 03:15:05;;;;;;;12.75;7.05;;;;;;;-3.74;54.31055;95117.05;;;;
2021/03/09 03:16:07;;;;;;;12.75;7.05;;;;;;;-3.74;54.31055;95117.05;;;;
2021/03/09 03:17:09;;;;;;;12.75;7.05;;;;;;;-3.74;54.31055;95117.05;;;;
2021/03/09 03:18:13;;;;;;;12.75;7.05;;;;;;;-3.74;54.31055;95117.05;;;;
2021/03/09 03:19:15;;;;;;;11.95;7.249999;;;;;;;-3.81;54.24902;95118.24;;;;
2021/03/09 03:20:17;;;;;;;11.95;7.249999;;;;;;;-3.81;54.24902;95118.24;;;;
2021/03/09 03:21:21;;;;;;;11.95;7.249999;;;;;;;-3.81;54.24902;95118.24;;;;
2021/03/09 03:22:22;;;;;;;11.95;7.249999;;;;;;;-3.81;54.24902;95118.24;;;;
2021/03/09 03:23:25;;;;;;;11.95;7.249999;;;;;;;-3.81;54.24902;95118.24;;;;
2021/03/09 03:24:26;;;;;;;11.95;7.249999;;;;;;;-3.81;54.24902;95118.24;;;;
2021/03/09 03:25:28;;;;;;;11.95;7.249999;;;;;;;-3.81;54.24902;95118.24;;;;
2021/03/09 03:26:29;;;;;;;11.95;7.249999;;;;;;;-3.81;54.24902;95118.24;;;;
2021/03/09 03:27:32;;;;;;;11.95;7.249999;;;;;;;-3.81;54.24902;95118.24;;;;
2021/03/09 03:28:35;;;;;;;11.95;7.249999;;;;;;;-3.81;54.24902;95118.24;;;;
2021/03/09 03:29:38;;;;;;;10.75;6.65;;;;;;;-3.89;54.49805;95124.78;;;;
2021/03/09 03:30:39;;;;;;;10.75;6.65;;;;;;;-3.89;54.49805;95124.78;;;;
2021/03/09 03:31:40;;;;;;;10.75;6.65;;;;;;;-3.89;54.49805;95124.78;;;;
2021/03/09 03:32:41;;;;;;;10.75;6.65;;;;;;;-3.89;54.49805;95124.78;;;;
2021/03/09 03:33:42;;;;;;;10.75;6.65;;;;;;;-3.89;54.49805;95124.78;;;;
2021/03/09 03:34:44;;;;;;;10.75;6.65;;;;;;;-3.89;54.49805;95124.78;;;;
2021/03/09 03:35:45;;;;;;;10.75;6.65;;;;;;;-3.89;54.49805;95124.78;;;;
2021/03/09 03:36:45;;;;;;;10.75;6.65;;;;;;;-3.89;54.49805;95124.78;;;;
2021/03/09 03:37:46;;;;;;;10.75;6.65;;;;;;;-3.89;54.49805;95124.78;;;;
2021/03/09 03:38:46;;;;;;;10.75;6.65;;;;;;;-3.89;54.49805;95124.78;;;;
2021/03/09 03:39:48;;;;;;;10.75;6.65;;;;;;;-3.89;54.49805;95124.78;;;;
2021/03/09 03:40:49;;;;;;;11.5;6.65;;;;;;;-3.88;54.60449;95125.52;;;;
2021/03/09 03:41:50;;;;;;;11.5;6.65;;;;;;;-3.88;54.60449;95125.52;;;;
2021/03/09 03:42:50;;;;;;;11.5;6.65;;;;;;;-3.88;54.60449;95125.52;;;;
2021/03/09 03:43:51;;;;;;;11.5;6.65;;;;;;;-3.88;54.60449;95125.52;;;;
2021/03/09 03:44:51;;;;;;;11.5;6.65;;;;;;;-3.88;54.60449;95125.52;;;;
2021/03/09 03:45:52;;;;;;;11.5;6.65;;;;;;;-3.88;54.60449;95125.52;;;;
2021/03/09 03:46:53;;;;;;;11.5;6.65;;;;;;;-3.88;54.60449;95125.52;;;;
2021/03/09 03:47:53;;;;;;;11.5;6.65;;;;;;;-3.88;54.60449;95125.52;;;;
2021/03/09 03:48:57;;;;;;;11.5;6.65;;;;;;;-3.88;54.60449;95125.52;;;;
2021/03/09 03:49:58;;;;;;;11.5;6.65;;;;;;;-3.88;54.60449;95125.52;;;;
2021/03/09 03:50:58;;;;;;;11.85;6.849999;;;;;;;-3.91;54.4541;95121.47;;;;
2021/03/09 03:52:00;;;;;;;11.85;6.849999;;;;;;;-3.91;54.4541;95121.47;;;;
2021/03/09 03:53:08;;;;;;;11.85;6.849999;;;;;;;-3.91;54.4541;95121.47;;;;
2021/03/09 03:54:20;;;;;;;11.85;6.849999;;;;;;;-3.91;54.4541;95121.47;;;;
2021/03/09 03:55:28;;;;;;;11.85;6.849999;;;;;;;-3.91;54.4541;95121.47;;;;
2021/03/09 03:56:38;;;;;;;11.85;6.849999;;;;;;;-3.91;54.4541;95121.47;;;;
2021/03/09 03:57:47;;;;;;;11.85;6.849999;;;;;;;-3.91;54.4541;95121.47;;;;
2021/03/09 03:58:49;;;;;;;11.85;6.849999;;;;;;;-3.91;54.4541;95121.47;;;;
2021/03/09 03:59:54;;;;;;;11.85;6.849999;;;;;;;-3.91;54.4541;95121.47;;;;
2021/03/09 04:01:00;;;;;;;11.85;6.849999;;;;;;;-3.91;54.4541;95121.47;;;;
2021/03/09 04:02:02;;;;;;;13;7.25;;;;;;;-3.97;54.49707;95109.78;;;;
2021/03/09 04:03:07;;;;;;;13;7.25;;;;;;;-3.97;54.49707;95109.78;;;;
2021/03/09 04:04:12;;;;;;;13;7.25;;;;;;;-3.97;54.49707;95109.78;;;;
2021/03/09 04:05:13;;;;;;;13;7.25;;;;;;;-3.97;54.49707;95109.78;;;;
2021/03/09 04:06:15;;;;;;;13;7.25;;;;;;;-3.97;54.49707;95109.78;;;;
2021/03/09 04:07:18;;;;;;;13;7.25;;;;;;;-3.97;54.49707;95109.78;;;;
2021/03/09 04:08:25;;;;;;;13;7.25;;;;;;;-3.97;54.49707;95109.78;;;;
2021/03/09 04:09:25;;;;;;;13;7.25;;;;;;;-3.97;54.49707;95109.78;;;;
2021/03/09 04:10:27;;;;;;;13;7.25;;;;;;;-3.97;54.49707;95109.78;;;;
2021/03/09 04:11:27;;;;;;;13;7.25;;;;;;;-3.97;54.49707;95109.78;;;;
2021/03/09 04:12:28;;;;;;;12.4;6.849999;;;;;;;-4.05;54.7168;95108.31;;;;
2021/03/09 04:13:30;;;;;;;12.4;6.849999;;;;;;;-4.05;54.7168;95108.31;;;;
2021/03/09 04:14:32;;;;;;;12.4;6.849999;;;;;;;-4.05;54.7168;95108.31;;;;
2021/03/09 04:15:33;;;;;;;12.4;6.849999;;;;;;;-4.05;54.7168;95108.31;;;;
2021/03/09 04:16:35;;;;;;;12.4;6.849999;;;;;;;-4.05;54.7168;95108.31;;;;
2021/03/09 04:17:36;;;;;;;12.4;6.849999;;;;;;;-4.05;54.7168;95108.31;;;;
2021/03/09 04:18:40;;;;;;;12.4;6.849999;;;;;;;-4.05;54.7168;95108.31;;;;
2021/03/09 04:19:43;;;;;;;12.4;6.849999;;;;;;;-4.05;54.7168;95108.31;;;;
2021/03/09 04:20:44;;;;;;;12.4;6.849999;;;;;;;-4.05;54.7168;95108.31;;;;
2021/03/09 04:21:45;;;;;;;12.4;6.849999;;;;;;;-4.05;54.7168;95108.31;;;;
2021/03/09 04:22:47;;;;;;;11.5;7;;;;;;;-4.19;54.90625;95089.18;;;;
2021/03/09 04:23:48;;;;;;;11.5;7;;;;;;;-4.19;54.90625;95089.18;;;;
2021/03/09 04:24:50;;;;;;;11.5;7;;;;;;;-4.19;54.90625;95089.18;;;;
2021/03/09 04:25:51;;;;;;;11.5;7;;;;;;;-4.19;54.90625;95089.18;;;;
2021/03/09 04:26:53;;;;;;;11.5;7;;;;;;;-4.19;54.90625;95089.18;;;;
2021/03/09 04:27:54;;;;;;;11.5;7;;;;;;;-4.19;54.90625;95089.18;;;;
2021/03/09 04:28:56;;;;;;;11.5;7;;;;;;;-4.19;54.90625;95089.18;;;;
2021/03/09 04:29:57;;;;;;;11.5;7;;;;;;;-4.19;54.90625;95089.18;;;;
2021/03/09 04:30:59;;;;;;;11.5;7;;;;;;;-4.19;54.90625;95089.18;;;;
2021/03/09 04:32:01;;;;;;;11.5;7;;;;;;;-4.19;54.90625;95089.18;;;;
2021/03/09 04:33:01;;;;;;;11.5;7;;;;;;;-4.19;54.90625;95089.18;;;;
2021/03/09 04:34:02;;;;;;;13.25;9.650002;;;;;;;-4.31;55.02637;95079.35;;;;
2021/03/09 04:35:03;;;;;;;13.25;9.650002;;;;;;;-4.31;55.02637;95079.35;;;;
2021/03/09 04:36:05;;;;;;;13.25;9.650002;;;;;;;-4.31;55.02637;95079.35;;;;
2021/03/09 04:37:07;;;;;;;13.25;9.650002;;;;;;;-4.31;55.02637;95079.35;;;;
2021/03/09 04:38:08;;;;;;;13.25;9.650002;;;;;;;-4.31;55.02637;95079.35;;;;
2021/03/09 04:39:10;;;;;;;13.25;9.650002;;;;;;;-4.31;55.02637;95079.35;;;;
2021/03/09 04:40:11;;;;;;;13.25;9.650002;;;;;;;-4.31;55.02637;95079.35;;;;
2021/03/09 04:41:13;;;;;;;13.25;9.650002;;;;;;;-4.31;55.02637;95079.35;;;;
2021/03/09 04:42:15;;;;;;;13.25;9.650002;;;;;;;-4.31;55.02637;95079.35;;;;
2021/03/09 04:43:16;;;;;;;13.25;9.650002;;;;;;;-4.31;55.02637;95079.35;;;;
2021/03/09 04:44:17;;;;;;;14.9;10.3;;;;;;;-4.4;56.14746;95074.1;;;;
2021/03/09 04:45:18;;;;;;;14.9;10.3;;;;;;;-4.4;56.14746;95074.1;;;;
2021/03/09 04:46:18;;;;;;;14.9;10.3;;;;;;;-4.4;56.14746;95074.1;;;;
2021/03/09 04:47:20;;;;;;;14.9;10.3;;;;;;;-4.4;56.14746;95074.1;;;;
2021/03/09 04:48:22;;;;;;;14.9;10.3;;;;;;;-4.4;56.14746;95074.1;;;;
2021/03/09 04:49:23;;;;;;;14.9;10.3;;;;;;;-4.4;56.14746;95074.1;;;;
2021/03/09 04:50:24;;;;;;;14.9;10.3;;;;;;;-4.4;56.14746;95074.1;;;;
2021/03/09 04:51:26;;;;;;;14.9;10.3;;;;;;;-4.4;56.14746;95074.1;;;;
2021/03/09 04:52:27;;;;;;;14.9;10.3;;;;;;;-4.4;56.14746;95074.1;;;;
2021/03/09 04:53:28;;;;;;;14.9;10.3;;;;;;;-4.4;56.14746;95074.1;;;;
2021/03/09 04:54:30;;;;;;;14.9;10.3;;;;;;;-4.4;56.14746;95074.1;;;;
2021/03/09 04:55:33;;;;;;;14.9;10.1;;;;;;;-4.48;56.97754;95095.49;;;;
2021/03/09 04:56:33;;;;;;;14.9;10.1;;;;;;;-4.48;56.97754;95095.49;;;;
2021/03/09 04:57:34;;;;;;;14.9;10.1;;;;;;;-4.48;56.97754;95095.49;;;;
2021/03/09 04:58:38;;;;;;;14.9;10.1;;;;;;;-4.48;56.97754;95095.49;;;;
2021/03/09 04:59:39;;;;;;;14.9;10.1;;;;;;;-4.48;56.97754;95095.49;;;;
2021/03/09 05:00:40;;;;;;;14.9;10.1;;;;;;;-4.48;56.97754;95095.49;;;;
2021/03/09 05:01:40;;;;;;;14.9;10.1;;;;;;;-4.48;56.97754;95095.49;;;;
2021/03/09 05:02:41;;;;;;;14.9;10.1;;;;;;;-4.48;56.97754;95095.49;;;;
2021/03/09 05:03:42;;;;;;;14.9;10.1;;;;;;;-4.48;56.97754;95095.49;;;;
2021/03/09 05:04:43;;;;;;;14.9;10.1;;;;;;;-4.48;56.97754;95095.49;;;;
2021/03/09 05:05:43;;;;;;;16.4;10.05;;;;;;;-4.57;57.70117;95096.9;;;;
2021/03/09 05:06:45;;;;;;;16.4;10.05;;;;;;;-4.57;57.70117;95096.9;;;;
2021/03/09 05:07:46;;;;;;;16.4;10.05;;;;;;;-4.57;57.70117;95096.9;;;;
2021/03/09 05:08:47;;;;;;;16.4;10.05;;;;;;;-4.57;57.70117;95096.9;;;;
2021/03/09 05:09:47;;;;;;;16.4;10.05;;;;;;;-4.57;57.70117;95096.9;;;;
2021/03/09 05:10:48;;;;;;;16.4;10.05;;;;;;;-4.57;57.70117;95096.9;;;;
2021/03/09 05:11:49;;;;;;;16.4;10.05;;;;;;;-4.57;57.70117;95096.9;;;;
2021/03/09 05:12:49;;;;;;;16.4;10.05;;;;;;;-4.57;57.70117;95096.9;;;;
2021/03/09 05:13:50;;;;;;;16.4;10.05;;;;;;;-4.57;57.70117;95096.9;;;;
2021/03/09 05:14:51;;;;;;;16.4;10.05;;;;;;;-4.57;57.70117;95096.9;;;;
2021/03/09 05:15:51;;;;;;;16.4;10.05;;;;;;;-4.57;57.70117;95096.9;;;;
2021/03/09 05:16:52;;;;;;;13.7;10.35;;;;;;;-4.64;58.34473;95097.16;;;;
2021/03/09 05:17:52;;;;;;;13.7;10.35;;;;;;;-4.64;58.34473;95097.16;;;;
2021/03/09 05:18:52;;;;;;;13.7;10.35;;;;;;;-4.64;58.34473;95097.16;;;;
2021/03/09 05:19:53;;;;;;;13.7;10.35;;;;;;;-4.64;58.34473;95097.16;;;;
2021/03/09 05:20:54;;;;;;;13.7;10.35;;;;;;;-4.64;58.34473;95097.16;;;;
2021/03/09 05:21:54;;;;;;;13.7;10.35;;;;;;;-4.64;58.34473;95097.16;;;;
2021/03/09 05:22:54;;;;;;;13.7;10.35;;;;;;;-4.64;58.34473;95097.16;;;;
2021/03/09 05:23:55;;;;;;;13.7;10.35;;;;;;;-4.64;58.34473;95097.16;;;;
2021/03/09 05:24:56;;;;;;;13.7;10.35;;;;;;;-4.64;58.34473;95097.16;;;;
2021/03/09 05:25:56;;;;;;;13.7;10.35;;;;;;;-4.64;58.34473;95097.16;;;;
2021/03/09 05:26:57;;;;;;;14.25;10.05;;;;;;;-4.62;58.81543;95093.47;;;;
2021/03/09 05:27:57;;;;;;;14.25;10.05;;;;;;;-4.62;58.81543;95093.47;;;;
2021/03/09 05:28:59;;;;;;;14.25;10.05;;;;;;;-4.62;58.81543;95093.47;;;;
2021/03/09 05:29:59;;;;;;;14.25;10.05;;;;;;;-4.62;58.81543;95093.47;;;;
2021/03/09 05:31:00;;;;;;;14.25;10.05;;;;;;;-4.62;58.81543;95093.47;;;;
2021/03/09 05:32:01;;;;;;;14.25;10.05;;;;;;;-4.62;58.81543;95093.47;;;;
2021/03/09 05:33:02;;;;;;;14.25;10.05;;;;;;;-4.62;58.81543;95093.47;;;;
2021/03/09 05:34:03;;;;;;;14.25;10.05;;;;;;;-4.62;58.81543;95093.47;;;;
2021/03/09 05:35:03;;;;;;;14.25;10.05;;;;;;;-4.62;58.81543;95093.47;;;;
2021/03/09 05:36:06;;;;;;;14.25;10.05;;;;;;;-4.62;58.81543;95093.47;;;;
2021/03/09 05:37:07;;;;;;;14.25;10.05;;;;;;;-4.62;58.81543;95093.47;;;;
2021/03/09 05:38:08;;;;;;;16.25;11.2;;;;;;;-4.68;59.18066;95100.16;;;;
2021/03/09 05:39:09;;;;;;;16.25;11.2;;;;;;;-4.68;59.18066;95100.16;;;;
2021/03/09 05:40:09;;;;;;;16.25;11.2;;;;;;;-4.68;59.18066;95100.16;;;;
2021/03/09 05:41:12;;;;;;;16.25;11.2;;;;;;;-4.68;59.18066;95100.16;;;;
2021/03/09 05:42:12;;;;;;;16.25;11.2;;;;;;;-4.68;59.18066;95100.16;;;;
2021/03/09 05:43:16;;;;;;;16.25;11.2;;;;;;;-4.68;59.18066;95100.16;;;;
2021/03/09 05:44:17;;;;;;;16.25;11.2;;;;;;;-4.68;59.18066;95100.16;;;;
2021/03/09 05:45:17;;;;;;;16.25;11.2;;;;;;;-4.68;59.18066;95100.16;;;;
2021/03/09 05:46:19;;;;;;;16.25;11.2;;;;;;;-4.68;59.18066;95100.16;;;;